Time;durP1;ratioP1;P1;durP2;ratioP2;P2;SDS_P1;SDS_P2;PMS_P1;PMS_P2;Temp;Humidity;BMP_temperature;BMP_pressure;BME280_temperature;BME280_humidity;BME280_pressure;Samples;Min_cycle;Max_cycle;Signal;HPM_P1;HPM_P2
2022/05/15 00:06:05;;;;;;;16.05;7.60;;;;;;;14.95;51.32;100497.59;30620314;28;96899;-70
2022/05/15 00:21:07;;;;;;;13.07;5.37;;;;;;;15.03;51.00;100510.03;30618834;28;97490;-75
2022/05/15 00:36:08;;;;;;;9.30;4.03;;;;;;;15.11;50.08;100514.47;30616865;28;96995;-75
2022/05/15 00:51:18;;;;;;;6.40;3.20;;;;;;;15.16;49.84;100523.59;30616145;28;104003;-71
2022/05/15 01:06:19;;;;;;;7.40;2.93;;;;;;;15.13;50.02;100533.88;30614650;28;97362;-70
2022/05/15 01:21:29;;;;;;;5.83;3.03;;;;;;;15.05;50.55;100540.22;30613791;28;96657;-80
2022/05/15 01:36:30;;;;;;;7.33;3.30;;;;;;;14.71;51.66;100536.34;30610971;28;97559;-71
2022/05/15 01:51:30;;;;;;;10.10;3.00;;;;;;;14.49;52.13;100538.09;30611593;28;96738;-70
2022/05/15 02:06:31;;;;;;;6.05;3.30;;;;;;;14.15;53.13;100537.69;30611364;28;96702;-71
2022/05/15 02:21:31;;;;;;;8.38;3.17;;;;;;;13.95;53.87;100537.38;30630361;28;96699;-70
2022/05/15 02:36:32;;;;;;;10.18;3.50;;;;;;;13.75;54.57;100552.31;30628773;28;97355;-70
2022/05/15 02:51:32;;;;;;;15.40;4.32;;;;;;;13.42;55.38;100561.47;30627270;28;96804;-71
2022/05/15 03:06:33;;;;;;;11.98;4.32;;;;;;;13.18;56.29;100565.97;30625837;28;96822;-75
2022/05/15 03:21:33;;;;;;;9.40;3.47;;;;;;;13.17;56.65;100579.53;30624479;28;96802;-70
2022/05/15 03:36:36;;;;;;;11.65;4.93;;;;;;;13.28;56.79;100589.81;30621685;28;96688;-74
2022/05/15 03:51:37;;;;;;;9.73;3.97;;;;;;;13.44;56.64;100610.31;30620418;28;97057;-71
2022/05/15 04:06:38;;;;;;;10.00;3.15;;;;;;;13.73;55.99;100614.09;30619509;28;98211;-71
2022/05/15 04:21:40;;;;;;;5.05;2.38;;;;;;;13.88;55.21;100622.97;30618268;28;97356;-77
2022/05/15 04:36:40;;;;;;;11.33;2.37;;;;;;;14.02;54.63;100639.28;30615529;28;97682;-76
2022/05/15 04:51:40;;;;;;;10.20;2.85;;;;;;;14.12;54.27;100645.22;30615210;28;96829;-79
2022/05/15 05:06:41;;;;;;;7.82;2.22;;;;;;;14.43;52.60;100662.97;30613907;28;103743;-71
2022/05/15 05:21:42;;;;;;;6.80;2.10;;;;;;;14.74;50.59;100666.53;30617732;28;97143;-79
2022/05/15 05:36:42;;;;;;;5.78;2.45;;;;;;;15.24;49.25;100686.34;30657173;28;96769;-78
2022/05/15 05:51:43;;;;;;;6.85;2.00;;;;;;;15.74;47.40;100689.94;30719242;28;97113;-77
2022/05/15 06:06:43;;;;;;;6.68;2.00;;;;;;;16.24;46.41;100703.44;30749319;28;97507;-76
2022/05/15 06:21:44;;;;;;;5.40;1.65;;;;;;;16.81;44.46;100707.94;30749485;28;96780;-70
2022/05/15 06:36:45;;;;;;;5.72;1.60;;;;;;;17.49;43.22;100715.31;30747002;28;96857;-74
2022/05/15 06:51:45;;;;;;;4.43;1.20;;;;;;;18.09;40.83;100721.63;30638956;28;97555;-73
2022/05/15 07:06:45;;;;;;;7.15;1.30;;;;;;;18.77;39.22;100723.22;30613085;28;111895;-74
2022/05/15 07:21:46;;;;;;;5.75;1.42;;;;;;;19.58;38.38;100736.44;30612192;28;97482;-71
2022/05/15 07:36:50;;;;;;;7.45;1.60;;;;;;;20.31;36.82;100728.88;30609853;28;108293;-71
2022/05/15 07:51:50;;;;;;;2.73;1.40;;;;;;;21.04;36.04;100730.03;30620434;28;97191;-73
2022/05/15 08:37:30;;;;;;;5.13;2.07;;;;;;;23.07;31.71;100722.84;30536926;28;97154;-71
2022/05/15 08:52:49;;;;;;;5.43;1.23;;;;;;;23.22;31.41;100725.06;30574973;28;97271;-71
2022/05/15 09:08:05;;;;;;;5.90;1.53;;;;;;;23.68;30.20;100735.19;30617757;28;97338;-71
2022/05/15 09:23:18;;;;;;;4.50;1.90;;;;;;;24.69;28.60;100733.53;30606116;28;97572;-70
2022/05/15 09:38:27;;;;;;;5.40;1.47;;;;;;;25.57;27.66;100728.09;30609537;28;96829;-70
2022/05/15 09:53:36;;;;;;;5.57;1.00;;;;;;;26.16;25.59;100732.75;30608514;28;97898;-70
2022/05/15 10:08:37;;;;;;;3.63;1.00;;;;;;;26.71;24.70;100745.41;30611496;28;96782;-72
2022/05/15 10:23:48;;;;;;;6.20;1.13;;;;;;;27.38;23.11;100715.63;30606786;28;96875;-71
2022/05/15 10:38:56;;;;;;;4.97;1.37;;;;;;;26.76;23.96;100715.38;30614276;28;96994;-69
2022/05/15 11:09:48;;;;;;;8.17;1.40;;;;;;;28.01;22.01;100677.94;30617953;28;97093;-69
2022/05/15 11:24:52;;;;;;;5.20;0.80;;;;;;;28.34;21.12;100659.22;30623676;28;97774;-68
2022/05/15 11:39:59;;;;;;;2.73;1.20;;;;;;;29.21;20.00;100648.97;30620423;28;96769;-68
2022/05/15 11:54:59;;;;;;;1.90;0.60;;;;;;;28.92;19.46;100655.19;30620345;28;96713;-67
2022/05/15 12:10:00;;;;;;;4.32;1.02;;;;;;;28.51;20.28;100633.41;30618841;28;96670;-67
2022/05/15 12:25:09;;;;;;;1.98;0.77;;;;;;;28.00;19.86;100616.03;30618093;28;97283;-67
2022/05/15 12:40:11;;;;;;;4.40;0.87;;;;;;;27.85;19.98;100600.44;30615782;28;96654;-67
2022/05/15 12:55:26;;;;;;;2.13;0.70;;;;;;;27.19;20.33;100593.03;30614752;28;97521;-67
2022/05/15 13:10:28;;;;;;;2.97;0.80;;;;;;;26.96;20.17;100578.78;30613467;28;97675;-66
2022/05/15 13:25:36;;;;;;;2.07;0.77;;;;;;;26.69;19.75;100574.31;30613033;28;97577;-67
2022/05/15 13:56:00;;;;;;;1.30;0.67;;;;;;;25.82;21.41;100539.22;30611015;28;98387;-67
2022/05/15 14:11:03;;;;;;;3.77;0.87;;;;;;;25.18;22.65;100534.66;30622248;28;97778;-67
2022/05/15 14:26:05;;;;;;;3.93;1.57;;;;;;;24.31;24.38;100515.47;30630139;28;97460;-67
2022/05/15 14:41:05;;;;;;;4.67;1.53;;;;;;;23.66;24.60;100518.69;30626758;28;97037;-66
2022/05/15 14:56:07;;;;;;;1.65;0.82;;;;;;;23.38;25.51;100507.91;30625241;28;97393;-67
2022/05/15 15:11:18;;;;;;;3.77;0.80;;;;;;;22.95;25.32;100518.28;30624199;28;97666;-66
2022/05/15 15:26:19;;;;;;;3.87;1.20;;;;;;;22.63;25.88;100508.75;30623311;28;96689;-67
2022/05/15 15:41:21;;;;;;;2.70;0.80;;;;;;;22.60;26.26;100503.81;30620897;28;96740;-67
2022/05/15 15:56:24;;;;;;;4.20;0.70;;;;;;;22.38;26.88;100498.25;30609682;28;97920;-67
2022/05/15 16:11:30;;;;;;;1.53;0.80;;;;;;;22.13;27.01;100476.84;30649695;28;98225;-66
2022/05/15 16:26:31;;;;;;;1.50;0.70;;;;;;;21.91;26.35;100476.63;30660284;28;97212;-68
2022/05/15 16:41:31;;;;;;;2.20;0.80;;;;;;;21.61;26.99;100475.75;30626432;28;97429;-68
2022/05/15 16:56:32;;;;;;;5.18;1.05;;;;;;;21.35;27.95;100487.00;30612657;28;97172;-69
2022/05/15 17:11:32;;;;;;;2.20;0.80;;;;;;;21.10;28.56;100493.44;30608785;28;115073;-68
2022/05/15 17:26:32;;;;;;;2.42;0.90;;;;;;;20.74;28.89;100481.72;30608644;28;98519;-68
2022/05/15 17:41:33;;;;;;;4.88;1.08;;;;;;;20.42;29.66;100490.03;30622860;28;102627;-69
2022/05/15 17:56:33;;;;;;;3.55;1.27;;;;;;;20.06;30.38;100487.13;30640420;28;104458;-67
2022/05/15 18:11:38;;;;;;;5.88;1.27;;;;;;;19.56;31.32;100506.97;30639903;28;97239;-68
2022/05/15 18:26:38;;;;;;;2.33;1.00;;;;;;;18.97;32.84;100510.97;30638433;28;98723;-67
2022/05/15 18:41:42;;;;;;;7.13;1.52;;;;;;;18.40;34.37;100506.28;30636703;28;97389;-71
2022/05/15 18:56:43;;;;;;;9.23;1.97;;;;;;;17.90;36.05;100509.50;30623498;28;96650;-67
2022/05/15 19:11:43;;;;;;;13.20;2.42;;;;;;;17.54;36.99;100514.31;30605541;28;98081;-68
